createdAt,value
2022-07-29T00:01:44.296Z,46.35
2022-07-29T00:04:13.992Z,45.92
2022-07-29T00:06:42.022Z,46.50
2022-07-29T00:09:10.210Z,45.81
2022-07-29T00:11:39.209Z,46.55
2022-07-29T00:14:10.251Z,46.48
2022-07-29T00:16:38.363Z,47.16
2022-07-29T00:19:07.798Z,46.60
2022-07-29T00:21:35.751Z,47.09
2022-07-29T00:24:04.034Z,46.47
2022-07-29T00:26:33.645Z,46.98
2022-07-29T00:29:32.512Z,45.73
2022-07-29T00:31:51.092Z,45.62
2022-07-29T00:34:38.115Z,44.61
2022-07-29T00:37:06.003Z,44.65
2022-07-29T00:39:35.771Z,44.13
2022-07-29T00:42:05.868Z,43.20
2022-07-29T00:44:38.412Z,43.48
2022-07-29T00:47:08.240Z,42.43
2022-07-29T00:49:36.770Z,42.10
2022-07-29T00:52:05.829Z,42.39
2022-07-29T00:54:35.306Z,41.25
2022-07-29T00:57:07.922Z,41.27
2022-07-29T00:59:36.240Z,41.30
2022-07-29T01:02:04.670Z,41.59
2022-07-29T01:04:33.096Z,41.22
2022-07-29T01:07:03.061Z,41.01
2022-07-29T01:09:42.207Z,40.67
2022-07-29T01:12:16.416Z,40.87
2022-07-29T01:14:44.369Z,41.04
2022-07-29T01:17:15.497Z,40.86
2022-07-29T01:19:52.437Z,40.09
2022-07-29T01:22:26.987Z,40.70
2022-07-29T01:25:04.659Z,40.34
2022-07-29T01:28:10.411Z,40.19
2022-07-29T01:30:43.300Z,40.12
2022-07-29T01:33:34.880Z,40.02
2022-07-29T01:36:07.520Z,40.15
2022-07-29T01:38:36.429Z,40.56
2022-07-29T01:41:12.236Z,40.53
2022-07-29T01:43:53.342Z,40.00
2022-07-29T01:46:34.891Z,40.38
2022-07-29T01:49:15.868Z,40.11
2022-07-29T01:52:05.197Z,39.96
2022-07-29T01:54:40.076Z,40.24
2022-07-29T01:57:09.416Z,40.23
2022-07-29T01:59:38.509Z,40.24
2022-07-29T02:02:09.401Z,39.84
2022-07-29T02:04:38.644Z,40.37
2022-07-29T02:07:07.375Z,40.59
2022-07-29T02:09:36.851Z,41.13
2022-07-29T02:12:05.655Z,41.20
2022-07-29T02:14:37.498Z,40.88
2022-07-29T02:17:06.302Z,41.13
2022-07-29T02:19:37.592Z,40.83
2022-07-29T02:22:07.633Z,40.37
2022-07-29T02:24:37.576Z,40.52
2022-07-29T02:27:05.320Z,40.38
2022-07-29T02:29:33.699Z,40.69
2022-07-29T02:32:02.163Z,40.74
2022-07-29T02:34:30.529Z,40.66
2022-07-29T02:36:59.407Z,40.55
2022-07-29T02:39:29.799Z,41.27
2022-07-29T02:42:07.237Z,40.77
2022-07-29T02:44:38.091Z,40.80
2022-07-29T02:47:20.421Z,40.76
2022-07-29T02:49:59.008Z,40.78
2022-07-29T02:52:35.252Z,41.01
2022-07-29T02:55:12.470Z,40.78
2022-07-29T02:57:55.123Z,40.83
2022-07-29T03:00:28.046Z,40.82
2022-07-29T03:02:57.714Z,41.45
2022-07-29T03:05:25.764Z,41.00
2022-07-29T03:07:59.966Z,41.04
2022-07-29T03:10:28.538Z,41.52
2022-07-29T03:12:57.170Z,41.77
2022-07-29T03:15:26.704Z,41.65
2022-07-29T03:17:57.126Z,41.49
2022-07-29T03:20:25.921Z,41.58
2022-07-29T03:22:54.019Z,41.44
2022-07-29T03:25:22.012Z,41.36
2022-07-29T03:27:50.542Z,41.49
2022-07-29T03:30:22.241Z,41.36
2022-07-29T03:32:52.075Z,41.39
2022-07-29T03:35:21.243Z,41.51
2022-07-29T03:37:50.395Z,41.87
2022-07-29T03:40:31.523Z,42.23
2022-07-29T03:43:00.509Z,41.63
2022-07-29T03:45:31.037Z,41.84
2022-07-29T03:48:02.956Z,42.21
2022-07-29T03:50:32.194Z,41.63
2022-07-29T03:53:00.995Z,41.92
2022-07-29T03:55:30.794Z,42.48
2022-07-29T03:58:00.346Z,42.46
2022-07-29T04:00:29.104Z,42.50
2022-07-29T04:02:58.831Z,42.31
2022-07-29T04:05:26.915Z,42.01
2022-07-29T04:07:54.961Z,42.48
2022-07-29T04:10:30.090Z,42.31
2022-07-29T04:13:00.375Z,42.99
2022-07-29T04:15:30.814Z,42.96
2022-07-29T04:18:00.321Z,42.20
2022-07-29T04:20:28.936Z,43.00
2022-07-29T04:22:56.562Z,42.02
2022-07-29T04:25:24.619Z,42.10
2022-07-29T04:28:02.218Z,42.10
2022-07-29T04:30:32.207Z,41.57
2022-07-29T04:33:02.019Z,43.28
2022-07-29T04:35:38.243Z,43.01
2022-07-29T04:38:07.623Z,42.47
2022-07-29T04:40:44.272Z,41.13
2022-07-29T04:43:17.010Z,41.95
2022-07-29T04:45:51.405Z,42.41
2022-07-29T04:48:21.949Z,41.94
2022-07-29T04:50:51.929Z,42.05
2022-07-29T04:53:19.861Z,41.56
2022-07-29T04:55:48.220Z,41.26
2022-07-29T04:58:15.927Z,41.05
2022-07-29T05:00:43.883Z,40.67
2022-07-29T05:03:13.451Z,40.66
2022-07-29T05:05:42.030Z,40.76
2022-07-29T05:08:11.064Z,41.00
2022-07-29T05:10:50.073Z,40.41
2022-07-29T05:13:20.378Z,39.94
2022-07-29T05:15:48.677Z,41.18
2022-07-29T05:18:18.686Z,40.26
2022-07-29T05:20:47.057Z,40.02
2022-07-29T05:23:15.702Z,40.17
2022-07-29T05:25:44.850Z,39.76
2022-07-29T05:28:13.659Z,39.78
2022-07-29T05:30:42.449Z,40.30
2022-07-29T05:33:34.221Z,39.48
2022-07-29T05:36:00.879Z,39.70
2022-07-29T05:38:29.023Z,39.23
2022-07-29T05:41:01.625Z,38.73
2022-07-29T05:43:31.056Z,38.94
2022-07-29T05:46:00.544Z,38.36
2022-07-29T05:48:29.533Z,39.02
2022-07-29T05:51:01.481Z,39.38
2022-07-29T05:53:31.320Z,38.93
2022-07-29T05:55:59.600Z,39.82
2022-07-29T05:58:31.695Z,39.69
2022-07-29T06:01:02.707Z,39.97
2022-07-29T06:03:42.548Z,39.11
2022-07-29T06:06:11.804Z,39.51
2022-07-29T06:08:44.220Z,39.59
2022-07-29T06:11:15.510Z,40.04
2022-07-29T06:13:44.142Z,39.84
2022-07-29T06:16:11.865Z,39.08
2022-07-29T06:18:43.612Z,38.59
2022-07-29T06:21:13.040Z,38.71
2022-07-29T06:23:41.497Z,40.25
2022-07-29T06:26:09.881Z,40.18
2022-07-29T06:28:40.534Z,38.76
2022-07-29T06:31:14.927Z,38.45
2022-07-29T06:33:44.395Z,38.02
2022-07-29T06:36:13.884Z,38.68
2022-07-29T06:38:47.547Z,38.01
2022-07-29T06:41:20.054Z,37.26
2022-07-29T06:43:52.480Z,37.13
2022-07-29T06:46:24.119Z,39.03
2022-07-29T06:48:54.364Z,37.75
2022-07-29T06:51:23.905Z,37.59
2022-07-29T06:54:02.350Z,37.30
2022-07-29T06:56:39.635Z,39.02
2022-07-29T06:59:11.484Z,37.48
2022-07-29T07:01:45.672Z,37.82
2022-07-29T07:04:16.763Z,36.01
2022-07-29T07:06:47.555Z,36.30
2022-07-29T07:09:18.259Z,35.92
2022-07-29T07:11:46.654Z,36.70
2022-07-29T07:14:18.315Z,37.42
2022-07-29T07:16:46.940Z,35.89
2022-07-29T07:19:16.698Z,36.40
2022-07-29T07:21:50.115Z,36.07
2022-07-29T07:24:18.291Z,36.21
2022-07-29T07:26:52.432Z,35.86
2022-07-29T07:29:21.029Z,35.77
2022-07-29T07:31:56.347Z,37.73
2022-07-29T07:34:31.222Z,35.99
2022-07-29T07:36:59.629Z,34.52
2022-07-29T07:39:28.234Z,34.77
2022-07-29T07:41:56.349Z,33.68
2022-07-29T07:44:25.131Z,33.89
2022-07-29T07:46:55.225Z,34.45
2022-07-29T07:49:28.316Z,34.53
2022-07-29T07:51:57.694Z,35.09
2022-07-29T07:54:26.185Z,33.91
2022-07-29T07:56:55.504Z,34.28
2022-07-29T07:59:26.267Z,36.53
2022-07-29T08:01:56.616Z,33.88
2022-07-29T08:04:33.276Z,34.94
2022-07-29T08:07:05.641Z,33.59
2022-07-29T08:09:35.536Z,33.18
2022-07-29T08:12:05.081Z,34.68
2022-07-29T08:14:35.516Z,32.78
2022-07-29T08:17:05.443Z,34.27
2022-07-29T08:19:34.354Z,33.93
2022-07-29T08:22:03.277Z,32.67
2022-07-29T08:24:44.559Z,32.04
2022-07-29T08:27:40.891Z,31.70
2022-07-29T08:30:10.204Z,31.12
2022-07-29T08:32:56.138Z,31.36
2022-07-29T08:35:35.108Z,31.63
2022-07-29T08:38:05.657Z,30.90
2022-07-29T08:40:36.246Z,29.96
2022-07-29T08:43:09.087Z,30.29
2022-07-29T08:45:49.586Z,30.38
2022-07-29T08:48:21.679Z,30.65
2022-07-29T08:50:53.987Z,30.06
2022-07-29T08:53:22.837Z,29.84
2022-07-29T08:55:52.430Z,30.79
2022-07-29T08:58:23.361Z,30.98
2022-07-29T09:00:56.720Z,29.55
2022-07-29T09:03:32.847Z,29.43
2022-07-29T09:06:04.460Z,29.48
2022-07-29T09:08:34.311Z,28.62
2022-07-29T09:11:05.747Z,28.06
2022-07-29T09:13:35.838Z,27.90
2022-07-29T09:16:09.342Z,27.93
2022-07-29T09:18:45.335Z,27.83
2022-07-29T09:21:36.329Z,27.54
2022-07-29T09:24:14.869Z,29.12
2022-07-29T09:26:47.001Z,30.67
2022-07-29T09:29:22.569Z,27.95
2022-07-29T09:31:54.071Z,26.34
2022-07-29T09:34:29.414Z,26.23
2022-07-29T09:36:59.295Z,25.92
2022-07-29T09:39:47.426Z,25.04
2022-07-29T09:42:29.372Z,26.42
2022-07-29T09:44:57.629Z,26.22
2022-07-29T09:47:47.297Z,26.83
2022-07-29T09:50:16.188Z,26.09
2022-07-29T09:52:54.489Z,24.91
2022-07-29T09:55:23.185Z,23.87
2022-07-29T09:57:55.568Z,24.06
2022-07-29T10:00:24.209Z,25.69
2022-07-29T10:03:08.388Z,24.30
2022-07-29T10:05:40.530Z,25.37
2022-07-29T10:08:16.277Z,26.17
2022-07-29T10:10:44.216Z,24.38
2022-07-29T10:13:16.704Z,23.18
2022-07-29T10:15:47.603Z,22.07
2022-07-29T10:18:20.758Z,22.51
2022-07-29T10:20:52.614Z,22.26
2022-07-29T10:23:22.908Z,24.26
2022-07-29T10:25:51.020Z,24.13
2022-07-29T10:28:24.658Z,21.88
2022-07-29T10:30:54.561Z,23.00
2022-07-29T10:33:42.376Z,23.25
2022-07-29T10:42:14.471Z,22.40
2022-07-29T10:44:50.009Z,22.43
2022-07-29T10:47:27.767Z,22.44
2022-07-29T10:50:05.339Z,23.38
2022-07-29T10:53:10.479Z,22.43
2022-07-29T10:55:55.179Z,21.44
2022-07-29T10:58:25.379Z,22.04
2022-07-29T11:01:06.476Z,23.65
2022-07-29T11:03:53.682Z,21.56
2022-07-29T11:06:26.597Z,21.52
2022-07-29T11:09:25.910Z,22.22
2022-07-29T11:12:05.572Z,21.80
2022-07-29T11:14:56.569Z,21.66
2022-07-29T11:17:26.039Z,20.60
2022-07-29T11:20:43.568Z,20.65
2022-07-29T11:23:33.425Z,21.97
2022-07-29T11:26:18.817Z,22.29
2022-07-29T11:28:56.312Z,22.17
2022-07-29T11:31:35.477Z,22.66
2022-07-29T11:34:41.561Z,21.16
2022-07-29T11:37:17.697Z,21.74
2022-07-29T11:40:01.518Z,22.48
2022-07-29T11:42:36.694Z,21.39
2022-07-29T11:45:43.923Z,21.00
2022-07-29T11:48:31.500Z,20.16
2022-07-29T11:51:13.329Z,20.11
2022-07-29T11:53:41.591Z,21.32
2022-07-29T11:56:21.391Z,20.88
2022-07-29T11:59:08.514Z,22.62
2022-07-29T12:02:12.039Z,21.93
2022-07-29T12:04:58.360Z,22.89
2022-07-29T12:07:37.547Z,23.42
2022-07-29T12:10:11.453Z,22.52
2022-07-29T12:12:57.374Z,25.19
2022-07-29T12:15:39.490Z,21.76
2022-07-29T12:18:16.462Z,22.83
2022-07-29T12:21:05.441Z,20.35
2022-07-29T12:23:35.593Z,20.18
2022-07-29T12:26:11.056Z,22.23
2022-07-29T12:29:08.494Z,21.62
2022-07-29T12:31:45.519Z,21.33
2022-07-29T12:34:14.859Z,23.90
2022-07-29T12:36:45.549Z,21.09
2022-07-29T12:39:14.338Z,20.31
2022-07-29T12:41:42.225Z,21.36
2022-07-29T12:44:11.690Z,19.95
2022-07-29T12:46:46.591Z,19.70
2022-07-29T12:49:30.396Z,20.20
2022-07-29T12:52:30.812Z,21.14
2022-07-29T12:55:03.663Z,19.69
2022-07-29T12:57:33.759Z,19.97
2022-07-29T13:00:12.170Z,22.62
2022-07-29T13:02:45.501Z,18.99
2022-07-29T13:05:15.462Z,19.63
2022-07-29T13:07:55.757Z,19.32
2022-07-29T13:10:37.876Z,19.81
2022-07-29T13:13:09.122Z,19.25
2022-07-29T13:15:40.962Z,18.44
2022-07-29T13:18:30.087Z,21.01
2022-07-29T13:21:13.057Z,18.64
2022-07-29T13:23:55.363Z,20.22
2022-07-29T13:26:25.446Z,19.82
2022-07-29T13:28:57.428Z,20.52
2022-07-29T13:31:28.333Z,20.34
2022-07-29T13:34:01.557Z,20.42
2022-07-29T13:39:13.376Z,20.90
2022-07-29T13:41:44.439Z,18.91
2022-07-29T13:44:14.588Z,18.65
2022-07-29T13:46:50.724Z,19.13
2022-07-29T13:49:24.959Z,19.29
2022-07-29T13:51:55.734Z,18.94
2022-07-29T13:54:25.040Z,19.52
2022-07-29T13:56:57.126Z,21.49
2022-07-29T13:59:26.836Z,20.46
2022-07-29T14:01:59.771Z,21.45
2022-07-29T14:04:29.790Z,20.63
2022-07-29T14:07:04.562Z,19.36
2022-07-29T14:09:43.049Z,19.82
2022-07-29T14:12:19.438Z,20.51
2022-07-29T14:15:01.357Z,20.26
2022-07-29T14:20:13.196Z,18.37
2022-07-29T14:22:46.368Z,19.09
2022-07-29T14:25:16.771Z,19.20
2022-07-29T14:27:52.537Z,20.53
2022-07-29T14:30:24.545Z,19.36
2022-07-29T14:33:12.715Z,18.30
2022-07-29T14:35:44.793Z,19.27
2022-07-29T14:38:16.932Z,21.45
2022-07-29T14:40:50.893Z,21.92
2022-07-29T14:43:21.900Z,21.83
2022-07-29T14:46:02.910Z,20.31
2022-07-29T14:48:34.994Z,20.61
2022-07-29T14:51:05.666Z,20.86
2022-07-29T14:53:38.102Z,21.38
2022-07-29T14:58:51.889Z,20.43
2022-07-29T15:01:21.829Z,20.87
2022-07-29T15:03:55.750Z,20.37
2022-07-29T15:06:37.454Z,21.26
2022-07-29T15:09:05.667Z,20.68
2022-07-29T15:14:11.610Z,22.78
2022-07-29T15:16:47.974Z,21.07
2022-07-29T15:19:22.463Z,20.57
2022-07-29T15:21:52.761Z,20.09
2022-07-29T15:24:31.413Z,20.15
2022-07-29T15:27:00.934Z,19.96
2022-07-29T15:29:30.650Z,21.02
2022-07-29T15:32:09.251Z,21.17
2022-07-29T15:34:46.018Z,20.97
2022-07-29T15:37:17.458Z,20.76
2022-07-29T15:39:51.459Z,21.63
2022-07-29T15:42:20.683Z,21.20
2022-07-29T15:44:52.430Z,20.78
2022-07-29T15:47:33.226Z,20.44
2022-07-29T15:50:05.545Z,20.81
2022-07-29T15:52:34.396Z,20.29
2022-07-29T15:55:10.490Z,21.25
2022-07-29T15:57:41.604Z,20.71
2022-07-29T16:02:56.856Z,22.62
2022-07-29T16:08:11.466Z,21.76
2022-07-29T16:10:56.474Z,21.55
2022-07-29T16:13:28.790Z,21.18
2022-07-29T16:16:02.500Z,21.08
2022-07-29T16:18:35.451Z,21.44
2022-07-29T16:23:45.776Z,21.64
2022-07-29T16:26:15.587Z,21.49
2022-07-29T16:28:46.755Z,21.53
2022-07-29T16:31:23.516Z,21.65
2022-07-29T16:34:00.770Z,22.07
2022-07-29T16:36:31.747Z,22.01
2022-07-29T16:39:06.735Z,22.19
2022-07-29T16:41:39.474Z,21.85
2022-07-29T16:44:08.378Z,22.54
2022-07-29T16:46:41.569Z,22.42
2022-07-29T16:49:19.417Z,22.65
2022-07-29T16:51:50.962Z,23.58
2022-07-29T16:54:21.448Z,23.61
2022-07-29T16:56:53.793Z,24.40
2022-07-29T16:59:23.583Z,24.44
2022-07-29T17:01:52.961Z,24.65
2022-07-29T17:04:22.886Z,24.13
2022-07-29T17:06:58.600Z,24.91
2022-07-29T17:09:36.483Z,24.96
2022-07-29T17:12:04.956Z,25.24
2022-07-29T17:14:39.679Z,26.15
2022-07-29T17:17:13.789Z,26.21
2022-07-29T17:22:19.691Z,27.29
2022-07-29T17:24:54.449Z,27.59
2022-07-29T17:29:59.959Z,28.33
2022-07-29T17:32:28.734Z,28.84
2022-07-29T17:34:57.021Z,29.39
2022-07-29T17:37:26.131Z,29.05
2022-07-29T17:39:58.619Z,28.94
2022-07-29T17:42:38.996Z,29.72
2022-07-29T17:45:11.672Z,29.87
2022-07-29T17:52:58.559Z,30.10
2022-07-29T17:55:29.462Z,29.99
2022-07-29T17:58:00.135Z,30.45
2022-07-29T18:00:31.099Z,30.73
2022-07-29T18:03:12.642Z,30.55
2022-07-29T18:05:41.811Z,30.91
2022-07-29T18:08:20.079Z,30.23
2022-07-29T18:10:49.596Z,30.51
2022-07-29T18:13:26.571Z,30.77
2022-07-29T18:15:58.699Z,31.14
2022-07-29T18:18:28.453Z,31.12
2022-07-29T18:20:58.548Z,31.46
2022-07-29T18:23:26.403Z,31.50
2022-07-29T18:25:57.982Z,32.23
2022-07-29T18:28:28.205Z,32.02
2022-07-29T18:30:56.752Z,32.30
2022-07-29T18:33:26.155Z,32.52
2022-07-29T18:36:10.490Z,32.33
2022-07-29T18:39:00.676Z,32.85
2022-07-29T18:41:35.457Z,33.13
2022-07-29T18:44:23.055Z,33.31
2022-07-29T18:47:07.755Z,33.45
2022-07-29T18:49:58.692Z,33.93
2022-07-29T18:52:36.930Z,33.68
2022-07-29T18:55:13.654Z,33.72
2022-07-29T18:57:55.392Z,34.06
2022-07-29T19:00:41.633Z,34.26
2022-07-29T19:03:11.956Z,34.27
2022-07-29T19:05:40.179Z,34.75
2022-07-29T19:08:09.039Z,34.65
2022-07-29T19:10:48.471Z,34.42
2022-07-29T19:13:22.879Z,34.69
2022-07-29T19:15:53.310Z,34.40
2022-07-29T19:18:27.957Z,34.15
2022-07-29T19:21:15.477Z,34.93
2022-07-29T19:24:00.783Z,34.80
2022-07-29T19:26:47.598Z,35.63
2022-07-29T19:29:30.646Z,36.00
2022-07-29T19:32:07.129Z,35.64
2022-07-29T19:34:39.507Z,35.18
2022-07-29T19:37:19.622Z,34.97
2022-07-29T19:39:51.086Z,35.05
2022-07-29T19:42:39.535Z,34.82
2022-07-29T19:45:12.517Z,35.43
2022-07-29T19:47:46.486Z,36.55
2022-07-29T19:50:22.532Z,36.05
2022-07-29T19:58:29.451Z,36.09
2022-07-29T20:01:10.353Z,35.92
2022-07-29T20:03:49.512Z,35.87
2022-07-29T20:06:23.502Z,35.21
2022-07-29T20:08:58.776Z,35.21
2022-07-29T20:11:37.747Z,36.39
2022-07-29T20:14:12.497Z,36.67
2022-07-29T20:16:47.060Z,36.94
2022-07-29T20:19:27.542Z,36.86
2022-07-29T20:24:36.675Z,37.10
2022-07-29T20:27:15.522Z,37.51
2022-07-29T20:29:48.691Z,37.46
2022-07-29T20:32:16.998Z,38.00
2022-07-29T20:34:49.653Z,37.44
2022-07-29T20:37:28.628Z,38.08
2022-07-29T20:39:57.556Z,38.37
2022-07-29T20:42:28.771Z,37.17
2022-07-29T20:47:38.530Z,39.00
2022-07-29T20:50:15.509Z,36.78
2022-07-29T20:52:51.959Z,36.66
2022-07-29T20:55:32.483Z,36.67
2022-07-29T20:58:07.530Z,36.42
2022-07-29T21:00:35.993Z,36.29
2022-07-29T21:03:05.026Z,36.10
2022-07-29T21:05:34.468Z,36.25
2022-07-29T21:08:03.523Z,36.70
2022-07-29T21:10:32.750Z,35.89
2022-07-29T21:13:01.303Z,35.74
2022-07-29T21:15:30.569Z,36.31
2022-07-29T21:18:17.935Z,36.09
2022-07-29T21:20:58.515Z,36.65
2022-07-29T21:23:30.480Z,35.83
2022-07-29T21:25:58.807Z,36.39
2022-07-29T21:28:27.817Z,36.46
2022-07-29T21:31:02.495Z,35.96
2022-07-29T21:33:35.369Z,37.06
2022-07-29T21:38:55.016Z,36.97
2022-07-29T21:41:24.145Z,36.69
2022-07-29T21:43:52.327Z,37.12
2022-07-29T21:46:24.513Z,37.84
2022-07-29T21:48:58.640Z,38.18
2022-07-29T21:51:31.075Z,38.37
2022-07-29T21:53:59.848Z,37.65
2022-07-29T21:56:29.912Z,38.31
2022-07-29T21:58:59.174Z,39.05
2022-07-29T22:01:28.494Z,39.51
2022-07-29T22:04:07.873Z,39.44
2022-07-29T22:06:35.708Z,39.58
2022-07-29T22:09:04.947Z,39.95
2022-07-29T22:11:33.635Z,39.48
2022-07-29T22:14:01.723Z,40.70
2022-07-29T22:16:31.123Z,41.35
2022-07-29T22:19:03.882Z,40.50
2022-07-29T22:21:35.238Z,40.69
2022-07-29T22:24:03.215Z,40.84
2022-07-29T22:26:32.508Z,40.56
2022-07-29T22:29:00.672Z,40.80
2022-07-29T22:34:12.766Z,41.90
2022-07-29T22:36:41.383Z,42.19
2022-07-29T22:39:09.771Z,42.89
2022-07-29T22:41:37.895Z,42.59
2022-07-29T22:44:06.299Z,43.40
2022-07-29T22:46:34.609Z,42.98
2022-07-29T22:49:02.736Z,43.52
2022-07-29T22:51:32.410Z,43.42
2022-07-29T22:54:00.067Z,42.70
2022-07-29T22:56:27.842Z,43.67
2022-07-29T22:58:56.150Z,44.04
2022-07-29T23:01:35.796Z,44.10
2022-07-29T23:04:06.469Z,44.29
2022-07-29T23:06:34.887Z,44.89
2022-07-29T23:09:03.760Z,44.97
2022-07-29T23:11:32.948Z,44.90
2022-07-29T23:14:00.905Z,44.26
2022-07-29T23:16:31.815Z,44.22
2022-07-29T23:19:01.102Z,44.81
2022-07-29T23:21:29.099Z,45.51
2022-07-29T23:23:58.187Z,45.99
2022-07-29T23:26:26.564Z,45.38
2022-07-29T23:28:55.010Z,45.92
2022-07-29T23:31:23.540Z,46.96
2022-07-29T23:33:53.551Z,47.07
2022-07-29T23:36:21.951Z,47.15
2022-07-29T23:38:51.032Z,46.87
2022-07-29T23:41:21.459Z,46.38
2022-07-29T23:43:49.548Z,46.42
2022-07-29T23:46:17.723Z,46.71
2022-07-29T23:48:52.177Z,46.92
2022-07-29T23:51:20.935Z,46.61
2022-07-29T23:53:53.918Z,48.31
2022-07-29T23:56:24.602Z,48.05
2022-07-29T23:58:52.370Z,48.44
